Time;durP1;ratioP1;P1;durP2;ratioP2;P2;SDS_P1;SDS_P2;PMS_P1;PMS_P2;Temp;Humidity;BMP_temperature;BMP_pressure;BME280_temperature;BME280_humidity;BME280_pressure;Samples;Min_cycle;Max_cycle;Signal;HPM_P1;HPM_P2
2022/10/13 00:00:40;;;;;;;10.48;5.43;;;11.60;99.90;;;;;;5085925;28;20032;-80
2022/10/13 00:03:06;;;;;;;18.17;6.20;;;11.50;99.90;;;;;;5072269;28;20072;-79
2022/10/13 00:05:33;;;;;;;20.92;7.63;;;11.50;99.90;;;;;;5079840;28;20595;-81
2022/10/13 00:08:02;;;;;;;15.30;6.75;;;11.50;99.90;;;;;;5079043;28;20111;-80
2022/10/13 00:10:27;;;;;;;13.70;6.82;;;11.60;99.90;;;;;;5081441;28;20028;-80
2022/10/13 00:12:53;;;;;;;22.45;6.18;;;11.60;99.90;;;;;;5086473;28;20338;-79
2022/10/13 00:15:19;;;;;;;14.98;6.75;;;11.60;99.90;;;;;;5089445;28;20492;-80
2022/10/13 00:17:51;;;;;;;19.77;6.38;;;11.50;99.90;;;;;;5088832;28;20074;-80
2022/10/13 00:20:16;;;;;;;14.00;5.57;;;11.50;99.90;;;;;;5083617;28;20123;-80
2022/10/13 00:22:42;;;;;;;18.30;5.65;;;11.40;99.90;;;;;;5079454;28;20123;-80
2022/10/13 00:25:08;;;;;;;20.50;6.60;;;11.30;99.90;;;;;;5088286;28;20153;-80
2022/10/13 00:27:33;;;;;;;13.02;5.18;;;11.20;99.90;;;;;;5090064;28;20031;-80
2022/10/13 00:29:59;;;;;;;16.10;6.60;;;11.10;99.90;;;;;;5082972;28;20035;-80
2022/10/13 00:32:25;;;;;;;20.42;7.22;;;11.00;99.90;;;;;;5078124;28;20028;-80
2022/10/13 00:34:50;;;;;;;17.15;5.72;;;10.90;99.90;;;;;;5081420;28;20063;-80
2022/10/13 00:37:16;;;;;;;13.98;5.05;;;10.90;99.90;;;;;;5089021;28;20032;-80
2022/10/13 00:39:42;;;;;;;14.55;5.70;;;10.80;99.90;;;;;;5088055;28;20378;-80
2022/10/13 00:42:11;;;;;;;22.42;6.53;;;10.70;99.90;;;;;;5082596;28;20039;-79
2022/10/13 00:45:06;;;;;;;17.05;5.47;;;10.60;99.90;;;;;;5085062;28;20043;-79
2022/10/13 00:47:42;;;;;;;11.80;5.05;;;10.50;99.90;;;;;;5081977;28;20051;-80
2022/10/13 00:50:11;;;;;;;16.15;5.68;;;10.40;99.90;;;;;;5081696;28;20028;-79
2022/10/13 00:52:40;;;;;;;9.82;4.95;;;10.30;99.90;;;;;;5087142;28;20410;-79
2022/10/13 00:55:08;;;;;;;13.25;5.35;;;10.20;99.90;;;;;;5087071;28;20115;-79
2022/10/13 00:57:34;;;;;;;15.57;6.40;;;10.20;99.90;;;;;;5084520;28;20070;-80
2022/10/13 01:00:05;;;;;;;14.13;6.65;;;10.10;99.90;;;;;;5089344;28;20039;-79
2022/10/13 01:02:35;;;;;;;20.92;6.78;;;10.20;99.90;;;;;;5083682;28;20123;-80
2022/10/13 01:05:06;;;;;;;16.48;6.32;;;10.20;99.90;;;;;;5087237;28;20464;-80
2022/10/13 01:07:34;;;;;;;18.48;6.57;;;10.20;99.90;;;;;;5079569;28;20349;-80
2022/10/13 01:10:01;;;;;;;24.88;8.57;;;10.20;99.90;;;;;;5086580;28;20059;-80
2022/10/13 01:12:45;;;;;;;23.95;8.90;;;10.30;99.90;;;;;;5082636;28;20056;-79
2022/10/13 01:15:26;;;;;;;24.67;7.72;;;10.50;99.90;;;;;;5079936;28;20055;-80
2022/10/13 01:18:21;;;;;;;22.85;8.40;;;10.60;99.90;;;;;;5084088;28;20397;-79
2022/10/13 01:21:12;;;;;;;16.33;7.50;;;10.70;99.90;;;;;;5087566;28;20035;-80
2022/10/13 01:23:43;;;;;;;17.35;7.90;;;10.80;99.90;;;;;;5084609;28;20290;-79
2022/10/13 01:26:36;;;;;;;27.95;8.15;;;11.00;99.90;;;;;;5072077;28;20036;-80
2022/10/13 01:29:20;;;;;;;23.52;9.20;;;11.00;99.90;;;;;;5083169;28;20036;-80
2022/10/13 01:32:16;;;;;;;22.75;9.07;;;11.00;99.90;;;;;;5080087;28;20119;-80
2022/10/13 01:35:16;;;;;;;23.90;7.93;;;11.10;99.90;;;;;;5060001;28;20485;-80
2022/10/13 01:38:09;;;;;;;33.65;10.60;;;11.10;99.90;;;;;;5084778;28;20064;-80
2022/10/13 01:40:44;;;;;;;23.75;9.85;;;11.10;99.90;;;;;;5085904;28;20507;-80
2022/10/13 01:43:15;;;;;;;23.10;9.07;;;11.20;99.90;;;;;;5079270;28;20051;-82
2022/10/13 01:45:57;;;;;;;21.27;9.02;;;11.20;99.90;;;;;;5087118;28;20374;-79
2022/10/13 01:48:24;;;;;;;28.13;10.30;;;11.30;99.90;;;;;;5082928;28;20473;-79
2022/10/13 01:50:50;;;;;;;24.42;10.15;;;11.30;99.90;;;;;;5082328;28;20032;-79
2022/10/13 01:53:17;;;;;;;31.67;11.25;;;11.30;99.90;;;;;;5084096;28;20103;-80
2022/10/13 01:55:51;;;;;;;27.10;9.98;;;11.40;99.90;;;;;;5080777;28;20028;-80
2022/10/13 01:58:17;;;;;;;20.17;10.85;;;11.40;99.90;;;;;;5079058;28;20036;-79
2022/10/13 02:01:01;;;;;;;24.58;9.85;;;11.40;99.90;;;;;;5082351;28;20408;-79
2022/10/13 02:03:45;;;;;;;24.20;10.38;;;11.40;99.90;;;;;;5081621;28;20103;-79
2022/10/13 02:06:19;;;;;;;34.30;10.60;;;11.40;99.90;;;;;;5079174;28;20060;-81
2022/10/13 02:09:04;;;;;;;27.35;10.15;;;11.40;99.90;;;;;;5085558;28;20145;-80
2022/10/13 02:11:29;;;;;;;31.75;10.32;;;11.40;99.90;;;;;;5087191;28;20032;-80
2022/10/13 02:14:00;;;;;;;26.92;11.38;;;11.50;99.90;;;;;;5078525;28;20370;-80
2022/10/13 02:16:30;;;;;;;28.13;9.73;;;11.50;99.90;;;;;;5089288;28;20039;-79
2022/10/13 02:18:57;;;;;;;24.98;9.73;;;11.50;99.90;;;;;;5083372;28;20505;-80
2022/10/13 02:21:23;;;;;;;24.27;10.15;;;11.50;99.90;;;;;;5090159;28;20516;-80
2022/10/13 02:23:48;;;;;;;30.77;11.00;;;11.50;99.90;;;;;;5077271;28;20035;-80
2022/10/13 02:26:15;;;;;;;32.20;10.43;;;11.40;99.90;;;;;;5090971;28;20032;-79
2022/10/13 02:28:41;;;;;;;27.05;10.60;;;11.40;99.90;;;;;;5088753;28;20427;-79
2022/10/13 02:31:09;;;;;;;34.85;11.57;;;11.30;99.90;;;;;;5078794;28;20040;-78
2022/10/13 02:33:35;;;;;;;25.80;10.13;;;11.30;99.90;;;;;;5083191;28;20475;-80
2022/10/13 02:36:01;;;;;;;29.55;9.77;;;11.30;99.90;;;;;;5087711;28;20043;-79
2022/10/13 02:38:26;;;;;;;17.27;9.45;;;11.20;99.90;;;;;;5077636;28;20103;-79
2022/10/13 02:40:53;;;;;;;35.28;11.05;;;11.10;99.90;;;;;;5077261;28;20036;-79
2022/10/13 02:43:19;;;;;;;24.38;10.82;;;11.10;99.90;;;;;;5085077;28;20577;-82
2022/10/13 02:45:44;;;;;;;31.15;11.38;;;11.10;99.90;;;;;;5079606;28;20045;-79
2022/10/13 02:48:13;;;;;;;25.98;12.02;;;11.10;99.90;;;;;;5083372;28;20137;-81
2022/10/13 02:50:39;;;;;;;22.85;10.57;;;11.00;99.90;;;;;;5088438;28;20030;-81
2022/10/13 02:53:04;;;;;;;19.23;10.35;;;11.00;99.90;;;;;;5089246;28;20447;-82
2022/10/13 02:55:30;;;;;;;36.20;12.80;;;11.00;99.90;;;;;;5077336;28;20563;-80
2022/10/13 02:57:56;;;;;;;28.40;11.75;;;11.00;99.90;;;;;;5077500;28;20029;-80
2022/10/13 03:00:21;;;;;;;28.05;11.75;;;11.00;99.90;;;;;;5088742;28;20028;-81
2022/10/13 03:02:47;;;;;;;29.05;11.38;;;11.10;99.90;;;;;;5089810;28;20054;-80
2022/10/13 03:05:12;;;;;;;31.95;11.07;;;11.10;99.90;;;;;;5084265;28;20024;-81
2022/10/13 03:07:38;;;;;;;31.02;14.45;;;11.00;99.90;;;;;;5087473;28;20089;-78
2022/10/13 03:10:13;;;;;;;38.00;13.82;;;11.00;99.90;;;;;;5083397;28;20067;-80
2022/10/13 03:12:39;;;;;;;34.53;13.10;;;10.90;99.90;;;;;;5088345;28;20032;-78
2022/10/13 03:15:05;;;;;;;28.85;13.35;;;11.00;99.90;;;;;;5084205;28;20047;-80
2022/10/13 03:17:30;;;;;;;32.75;13.10;;;11.00;99.90;;;;;;5083997;28;20067;-80
2022/10/13 03:19:56;;;;;;;37.28;13.43;;;11.00;99.90;;;;;;5088720;28;20484;-80
2022/10/13 03:22:22;;;;;;;27.40;13.13;;;10.90;99.90;;;;;;5086858;28;20061;-79
2022/10/13 03:24:47;;;;;;;30.73;13.70;;;10.80;99.90;;;;;;5084054;28;20024;-79
2022/10/13 03:27:14;;;;;;;26.70;13.30;;;10.90;99.90;;;;;;5091331;28;20019;-80
2022/10/13 03:29:39;;;;;;;26.42;14.13;;;10.80;99.90;;;;;;5087831;28;20056;-81
2022/10/13 03:32:08;;;;;;;23.48;12.73;;;10.80;99.90;;;;;;5087906;28;20063;-81
2022/10/13 03:34:34;;;;;;;25.48;13.10;;;10.80;99.90;;;;;;5082571;28;20554;-80
2022/10/13 03:37:33;;;;;;;36.28;12.73;;;10.70;99.90;;;;;;5085190;28;20116;-81
2022/10/13 03:39:59;;;;;;;26.92;13.38;;;10.70;99.90;;;;;;5077235;28;20048;-82
2022/10/13 03:42:24;;;;;;;26.58;13.60;;;10.70;99.90;;;;;;5086426;28;20039;-81
2022/10/13 03:44:59;;;;;;;39.58;14.57;;;10.70;99.90;;;;;;5085868;28;20103;-79
2022/10/13 03:47:41;;;;;;;32.77;14.83;;;10.70;99.90;;;;;;5083086;28;20045;-82
2022/10/13 03:50:39;;;;;;;32.47;16.58;;;10.60;99.90;;;;;;5088676;28;20101;-81
2022/10/13 03:53:35;;;;;;;34.40;15.82;;;10.60;99.90;;;;;;5089360;28;20036;-81
2022/10/13 03:56:16;;;;;;;34.20;14.73;;;10.60;99.90;;;;;;5079830;28;20028;-80
2022/10/13 03:58:43;;;;;;;27.77;13.13;;;10.60;99.90;;;;;;5079974;28;20044;-80
2022/10/13 04:15:46;;;;;;;35.55;17.23;;;10.60;99.90;;;;;;5018959;28;20044;-81
2022/10/13 04:18:18;;;;;;;39.22;17.98;;;10.60;99.90;;;;;;5012550;28;20384;-82
2022/10/13 04:20:46;;;;;;;32.97;17.63;;;10.70;99.90;;;;;;5019048;28;20084;-82
2022/10/13 04:23:13;;;;;;;37.90;18.42;;;10.70;99.90;;;;;;5061350;28;20051;-81
2022/10/13 04:25:38;;;;;;;42.08;16.75;;;10.60;99.90;;;;;;5087390;28;20085;-81
2022/10/13 04:28:10;;;;;;;47.15;17.63;;;10.60;99.90;;;;;;5075114;28;20032;-81
2022/10/13 04:30:35;;;;;;;43.08;17.10;;;10.60;99.90;;;;;;5078082;28;20030;-80
2022/10/13 04:33:01;;;;;;;35.58;18.52;;;10.70;99.90;;;;;;5087839;28;20036;-81
2022/10/13 04:35:27;;;;;;;37.92;17.98;;;10.60;99.90;;;;;;5080034;28;20056;-80
2022/10/13 04:37:53;;;;;;;35.50;18.45;;;10.60;99.90;;;;;;5093428;28;20036;-83
2022/10/13 04:40:19;;;;;;;42.33;20.15;;;10.60;99.90;;;;;;5081102;28;20028;-81
2022/10/13 04:42:44;;;;;;;41.33;20.52;;;10.60;99.90;;;;;;5086394;28;20130;-81
2022/10/13 04:45:13;;;;;;;51.35;20.27;;;10.60;99.90;;;;;;5087830;28;20036;-81
2022/10/13 04:47:40;;;;;;;44.95;21.50;;;10.70;99.90;;;;;;5082358;28;20119;-81
2022/10/13 04:50:05;;;;;;;45.03;21.58;;;10.70;99.90;;;;;;5079466;28;20369;-81
2022/10/13 04:52:33;;;;;;;55.00;21.52;;;10.60;99.90;;;;;;5075716;28;20451;-81
2022/10/13 04:54:59;;;;;;;48.05;22.30;;;10.70;99.90;;;;;;5080710;28;20052;-83
2022/10/13 04:57:24;;;;;;;45.10;22.17;;;10.70;99.90;;;;;;5085709;28;20097;-83
2022/10/13 04:59:50;;;;;;;44.97;21.60;;;10.70;99.90;;;;;;5088675;28;20035;-82
2022/10/13 05:02:15;;;;;;;43.35;22.50;;;10.70;99.90;;;;;;5090261;28;20063;-81
2022/10/13 05:04:41;;;;;;;43.42;22.23;;;10.70;99.90;;;;;;5089521;28;20032;-81
2022/10/13 05:07:13;;;;;;;48.67;23.40;;;10.70;99.90;;;;;;5090226;28;20059;-81
2022/10/13 05:09:38;;;;;;;39.60;20.90;;;10.70;99.90;;;;;;5089723;28;20028;-81
2022/10/13 05:12:04;;;;;;;47.40;21.52;;;10.70;99.90;;;;;;5090778;28;20028;-82
2022/10/13 05:14:31;;;;;;;57.67;23.08;;;10.80;99.90;;;;;;5089465;28;20092;-81
2022/10/13 05:16:56;;;;;;;37.15;20.65;;;10.80;99.90;;;;;;5076198;28;20047;-80
2022/10/13 05:19:22;;;;;;;41.67;21.23;;;10.80;99.90;;;;;;5081073;28;20037;-82
2022/10/13 05:21:48;;;;;;;39.13;21.85;;;10.90;99.90;;;;;;5082907;28;20499;-81
2022/10/13 05:24:15;;;;;;;48.72;21.63;;;10.90;99.90;;;;;;5085231;28;20035;-81
2022/10/13 05:26:41;;;;;;;42.30;21.27;;;10.90;99.90;;;;;;5083432;28;20071;-82
2022/10/13 05:29:12;;;;;;;42.75;21.55;;;10.90;99.90;;;;;;5087884;28;20484;-82
2022/10/13 05:31:39;;;;;;;43.38;22.38;;;11.00;99.90;;;;;;5087632;28;20465;-82
2022/10/13 05:34:05;;;;;;;43.67;22.73;;;11.00;99.90;;;;;;5088917;28;20508;-82
2022/10/13 05:36:33;;;;;;;38.75;21.50;;;11.10;99.90;;;;;;5083681;28;20306;-83
2022/10/13 05:39:02;;;;;;;36.38;21.48;;;11.10;99.90;;;;;;5088404;28;20569;-81
2022/10/13 05:41:28;;;;;;;40.35;21.20;;;11.20;99.90;;;;;;5081750;28;20036;-81
2022/10/13 05:44:00;;;;;;;55.75;19.42;;;11.20;99.90;;;;;;5087562;28;20488;-80
2022/10/13 05:46:26;;;;;;;46.25;21.30;;;11.20;99.90;;;;;;5082845;28;20032;-81
2022/10/13 05:48:52;;;;;;;36.90;19.63;;;11.20;99.90;;;;;;5088396;28;20465;-80
2022/10/13 05:51:31;;;;;;;30.73;16.85;;;11.10;99.90;;;;;;5091866;28;20024;-80
2022/10/13 05:54:05;;;;;;;44.05;19.40;;;11.10;99.90;;;;;;5087229;28;20273;-81
2022/10/13 05:56:37;;;;;;;41.47;20.00;;;11.10;99.90;;;;;;5090298;28;20035;-81
2022/10/13 05:59:12;;;;;;;25.92;14.93;;;11.20;99.90;;;;;;5090486;28;20032;-81
2022/10/13 06:01:40;;;;;;;23.90;13.80;;;11.20;99.90;;;;;;5093549;28;20051;-81
2022/10/13 06:04:10;;;;;;;23.48;13.43;;;11.10;99.90;;;;;;5093333;28;20032;-81
2022/10/13 06:06:36;;;;;;;25.05;13.20;;;11.20;99.90;;;;;;5093654;28;20059;-80
2022/10/13 06:09:02;;;;;;;28.50;13.90;;;11.10;99.90;;;;;;5092929;28;20071;-81
2022/10/13 06:11:27;;;;;;;20.85;13.75;;;11.10;99.90;;;;;;5093360;28;20158;-81
2022/10/13 06:13:53;;;;;;;27.98;13.85;;;11.10;99.90;;;;;;5092720;28;20044;-80
2022/10/13 06:16:28;;;;;;;26.42;14.00;;;11.00;99.90;;;;;;5093575;28;20024;-81
2022/10/13 06:18:53;;;;;;;20.70;15.00;;;11.00;99.90;;;;;;5092861;28;20035;-81
2022/10/13 06:21:19;;;;;;;28.02;15.98;;;11.00;99.90;;;;;;5093318;28;20024;-81
2022/10/13 06:23:44;;;;;;;27.27;15.15;;;11.00;99.90;;;;;;5092569;28;20028;-81
2022/10/13 06:26:19;;;;;;;29.63;18.27;;;11.00;99.90;;;;;;5093048;28;20493;-81
2022/10/13 06:28:45;;;;;;;27.08;15.93;;;10.90;99.90;;;;;;5092569;28;20047;-81
2022/10/13 06:31:19;;;;;;;25.67;15.55;;;10.90;99.90;;;;;;5093115;28;20032;-81
2022/10/13 06:33:45;;;;;;;21.08;13.98;;;10.90;99.90;;;;;;5092651;28;20028;-81
2022/10/13 06:36:10;;;;;;;30.85;16.08;;;10.90;99.90;;;;;;5093003;28;20498;-81
2022/10/13 06:38:36;;;;;;;21.65;14.38;;;10.80;99.90;;;;;;5092460;28;20032;-81
2022/10/13 06:41:04;;;;;;;27.15;17.52;;;10.80;99.90;;;;;;5093062;28;20024;-81
2022/10/13 06:43:29;;;;;;;40.08;18.77;;;10.80;99.90;;;;;;5091858;28;20047;-82
2022/10/13 06:45:59;;;;;;;29.65;15.68;;;10.80;99.90;;;;;;5091543;28;20039;-81
2022/10/13 06:48:26;;;;;;;34.83;15.93;;;10.70;99.90;;;;;;5084637;28;20097;-79
2022/10/13 06:50:52;;;;;;;26.38;15.82;;;10.70;99.90;;;;;;5092971;28;20056;-81
2022/10/13 06:53:20;;;;;;;40.97;18.73;;;10.70;99.90;;;;;;5092689;28;20458;-80
2022/10/13 06:55:46;;;;;;;37.85;17.35;;;10.70;99.90;;;;;;5092072;28;20391;-81
2022/10/13 06:58:17;;;;;;;35.60;16.90;;;10.80;99.90;;;;;;5092495;28;20028;-81
2022/10/13 07:00:43;;;;;;;32.13;16.95;;;10.70;99.90;;;;;;5091561;28;20111;-81
2022/10/13 07:03:16;;;;;;;28.80;14.25;;;10.70;99.90;;;;;;5091382;28;20122;-81
2022/10/13 07:05:41;;;;;;;32.17;16.45;;;10.70;99.90;;;;;;5091880;28;20430;-81
2022/10/13 07:08:07;;;;;;;29.73;16.08;;;10.70;99.90;;;;;;5089801;28;20032;-80
2022/10/13 07:10:32;;;;;;;33.38;18.63;;;10.80;99.90;;;;;;5091714;28;20046;-80
2022/10/13 07:12:58;;;;;;;27.48;14.95;;;10.90;99.90;;;;;;5091244;28;20068;-80
2022/10/13 07:15:23;;;;;;;26.63;15.90;;;10.90;99.90;;;;;;5091378;28;20421;-81
2022/10/13 07:17:52;;;;;;;43.63;19.25;;;11.00;99.90;;;;;;5090724;28;20024;-81
2022/10/13 07:20:22;;;;;;;34.88;19.92;;;11.10;99.90;;;;;;5081513;28;20032;-81
2022/10/13 07:22:48;;;;;;;35.85;18.65;;;11.10;99.90;;;;;;5089502;28;20040;-81
2022/10/13 07:25:20;;;;;;;39.30;17.80;;;11.10;99.90;;;;;;5096084;28;20493;-81
2022/10/13 07:27:45;;;;;;;29.58;16.88;;;11.20;99.90;;;;;;5094147;28;20028;-82
2022/10/13 07:30:12;;;;;;;35.40;18.08;;;11.30;99.90;;;;;;5087644;28;20036;-81
2022/10/13 07:32:40;;;;;;;31.02;18.15;;;11.40;99.90;;;;;;5087183;28;20074;-81
2022/10/13 07:35:10;;;;;;;28.48;15.18;;;11.40;99.90;;;;;;5090033;28;20032;-81
2022/10/13 07:37:36;;;;;;;34.67;18.75;;;11.50;99.90;;;;;;5091560;28;20043;-79
2022/10/13 07:40:04;;;;;;;27.42;15.45;;;11.50;99.90;;;;;;5091178;28;20039;-81
2022/10/13 07:42:30;;;;;;;37.08;18.02;;;11.50;99.90;;;;;;5091368;28;20043;-81
2022/10/13 07:44:56;;;;;;;33.80;17.02;;;11.60;99.90;;;;;;5090784;28;20039;-81
2022/10/13 07:47:22;;;;;;;34.10;15.75;;;11.60;99.90;;;;;;5088425;28;20477;-82
2022/10/13 07:49:47;;;;;;;30.25;15.73;;;11.60;99.90;;;;;;5088414;28;20028;-80
2022/10/13 07:52:13;;;;;;;25.45;15.30;;;11.70;99.90;;;;;;5081973;28;20469;-81
2022/10/13 07:54:38;;;;;;;25.85;14.90;;;11.70;99.90;;;;;;5090439;28;20516;-81
2022/10/13 07:57:04;;;;;;;31.17;16.63;;;11.80;99.90;;;;;;5087256;28;20499;-81
2022/10/13 07:59:33;;;;;;;33.17;16.63;;;11.80;99.90;;;;;;5090021;28;20035;-83
2022/10/13 08:01:59;;;;;;;28.02;15.95;;;12.00;99.90;;;;;;5086905;28;20170;-81
2022/10/13 08:04:33;;;;;;;39.47;17.85;;;12.10;99.90;;;;;;5089735;28;20019;-82
2022/10/13 08:06:58;;;;;;;36.35;18.60;;;12.10;99.90;;;;;;5087901;28;20378;-81
2022/10/13 08:09:25;;;;;;;36.50;17.23;;;12.20;99.90;;;;;;5090048;28;20055;-81
2022/10/13 08:11:51;;;;;;;39.47;17.83;;;12.20;99.90;;;;;;5093898;28;20024;-80
2022/10/13 08:14:17;;;;;;;38.63;18.30;;;12.20;99.90;;;;;;5083810;28;20038;-82
2022/10/13 08:16:44;;;;;;;37.92;19.15;;;12.20;99.90;;;;;;5080593;28;20867;-83
2022/10/13 08:19:11;;;;;;;28.48;16.85;;;12.20;99.90;;;;;;5090108;28;20046;-81
2022/10/13 08:21:37;;;;;;;30.35;14.80;;;12.20;99.90;;;;;;5090753;28;20464;-82
2022/10/13 08:24:04;;;;;;;37.28;17.67;;;12.20;99.90;;;;;;5090472;28;20034;-82
2022/10/13 08:26:30;;;;;;;27.15;17.20;;;12.20;99.90;;;;;;5090749;28;20032;-81
2022/10/13 08:28:55;;;;;;;33.45;17.27;;;12.20;99.90;;;;;;5090110;28;20032;-82
2022/10/13 08:31:21;;;;;;;25.20;14.88;;;12.20;99.90;;;;;;5090758;28;20035;-81
2022/10/13 08:33:47;;;;;;;26.75;16.88;;;12.20;99.90;;;;;;5090841;28;20066;-79
2022/10/13 08:36:16;;;;;;;48.88;18.17;;;12.30;99.90;;;;;;5090738;28;20059;-83
2022/10/13 08:38:43;;;;;;;35.22;16.23;;;12.30;99.90;;;;;;5090848;28;20028;-81
2022/10/13 08:41:27;;;;;;;25.70;14.80;;;12.40;99.90;;;;;;5089929;28;20031;-82
2022/10/13 08:44:02;;;;;;;28.25;15.60;;;12.40;99.90;;;;;;5089707;28;20481;-81
2022/10/13 08:46:51;;;;;;;19.33;12.38;;;12.40;99.90;;;;;;5090382;28;20063;-81
2022/10/13 08:49:17;;;;;;;34.20;14.57;;;12.40;99.90;;;;;;5085590;28;20031;-82
2022/10/13 08:51:43;;;;;;;30.88;15.48;;;12.40;99.90;;;;;;5090489;28;20020;-81
2022/10/13 08:54:14;;;;;;;27.90;14.63;;;12.40;99.90;;;;;;5088570;28;20028;-82
2022/10/13 08:56:40;;;;;;;27.50;14.38;;;12.50;99.90;;;;;;5080415;28;20028;-82
2022/10/13 08:59:12;;;;;;;30.55;15.73;;;12.60;99.90;;;;;;5089957;28;20032;-81
2022/10/13 09:01:37;;;;;;;27.30;13.52;;;12.50;99.90;;;;;;5090081;28;20083;-80
2022/10/13 09:04:21;;;;;;;25.60;13.40;;;12.60;99.90;;;;;;5089838;28;20063;-81
2022/10/13 09:07:16;;;;;;;22.95;12.40;;;12.60;99.90;;;;;;5087239;28;20020;-81
2022/10/13 09:09:41;;;;;;;28.63;14.32;;;12.60;99.90;;;;;;5049980;28;20043;-81
2022/10/13 09:12:12;;;;;;;30.80;12.40;;;12.60;99.90;;;;;;5082453;28;20415;-81
2022/10/13 09:14:40;;;;;;;22.60;12.00;;;12.60;99.90;;;;;;5089277;28;20035;-81
2022/10/13 09:17:13;;;;;;;23.65;11.02;;;12.70;99.90;;;;;;5089444;28;20380;-80
2022/10/13 09:19:39;;;;;;;17.55;10.88;;;12.70;99.90;;;;;;5089274;28;20056;-81
2022/10/13 09:22:23;;;;;;;24.08;13.50;;;12.70;99.90;;;;;;5090274;28;20089;-82
2022/10/13 09:25:21;;;;;;;27.17;13.30;;;12.80;99.90;;;;;;5089043;28;20035;-82
2022/10/13 09:27:58;;;;;;;31.55;12.73;;;13.00;99.90;;;;;;5081906;28;20040;-82
2022/10/13 09:30:34;;;;;;;24.83;13.48;;;13.10;99.90;;;;;;5088998;28;20032;-81
2022/10/13 09:33:11;;;;;;;20.52;11.20;;;13.20;99.90;;;;;;5089872;28;20123;-81
2022/10/13 09:35:43;;;;;;;26.55;12.30;;;13.30;99.90;;;;;;5089118;28;20036;-81
2022/10/13 09:38:20;;;;;;;31.17;12.30;;;13.30;99.90;;;;;;5080937;28;20032;-81
2022/10/13 09:41:04;;;;;;;21.95;10.25;;;13.40;99.90;;;;;;5089105;28;20473;-81
2022/10/13 09:43:36;;;;;;;26.88;10.90;;;13.40;99.90;;;;;;5089706;28;20040;-83
2022/10/13 09:46:10;;;;;;;21.15;10.43;;;13.60;99.90;;;;;;5080211;28;20032;-81
2022/10/13 09:48:36;;;;;;;25.50;10.05;;;13.70;99.90;;;;;;5089581;28;20465;-80
2022/10/13 09:51:02;;;;;;;25.25;9.93;;;13.80;99.90;;;;;;5092490;28;20119;-81
2022/10/13 09:53:39;;;;;;;18.20;8.35;;;13.90;99.90;;;;;;5086634;28;20040;-81
2022/10/13 09:56:40;;;;;;;18.75;7.43;;;14.00;99.90;;;;;;5083568;28;20435;-82
2022/10/13 09:59:27;;;;;;;25.77;7.93;;;14.10;99.90;;;;;;5093735;28;20056;-81
2022/10/13 10:01:54;;;;;;;24.15;6.95;;;14.20;99.90;;;;;;5087099;28;20497;-81
2022/10/13 10:04:36;;;;;;;16.95;6.07;;;14.20;99.90;;;;;;5082574;28;20032;-82
2022/10/13 10:07:14;;;;;;;14.93;7.50;;;14.40;99.90;;;;;;5082872;28;20036;-81
2022/10/13 10:09:45;;;;;;;15.07;6.47;;;14.40;99.90;;;;;;5081240;28;20384;-81
2022/10/13 10:12:17;;;;;;;17.65;7.32;;;14.50;99.90;;;;;;5087491;28;20548;-82
2022/10/13 10:14:43;;;;;;;19.00;6.70;;;14.50;99.90;;;;;;5079068;28;20032;-82
2022/10/13 10:17:19;;;;;;;20.38;6.45;;;14.60;99.90;;;;;;5088254;28;20085;-83
2022/10/13 10:19:44;;;;;;;17.02;5.95;;;14.70;99.90;;;;;;5082753;28;20024;-82
2022/10/13 10:22:46;;;;;;;18.27;6.40;;;14.70;99.90;;;;;;5088855;28;20400;-82
2022/10/13 10:25:24;;;;;;;18.70;5.93;;;14.70;99.90;;;;;;5084622;28;20381;-83
2022/10/13 10:28:08;;;;;;;18.85;6.32;;;14.70;99.90;;;;;;5089327;28;20468;-82
2022/10/13 10:30:40;;;;;;;18.08;6.30;;;14.70;99.90;;;;;;5087561;28;20032;-82
2022/10/13 10:33:12;;;;;;;24.90;7.15;;;14.60;99.90;;;;;;5089117;28;20456;-83
2022/10/13 10:35:44;;;;;;;11.65;6.57;;;14.60;99.90;;;;;;5087893;28;20461;-82
2022/10/13 10:38:27;;;;;;;16.65;6.95;;;14.60;99.90;;;;;;5086190;28;20024;-82
2022/10/13 10:41:04;;;;;;;20.67;7.28;;;14.60;99.90;;;;;;5085407;28;20085;-82
2022/10/13 10:43:54;;;;;;;14.68;6.72;;;14.70;99.90;;;;;;5086746;28;20125;-82
2022/10/13 10:46:29;;;;;;;16.50;7.07;;;14.70;99.90;;;;;;5090859;28;20068;-80
2022/10/13 10:49:00;;;;;;;20.40;8.30;;;14.70;99.90;;;;;;5084732;28;20032;-82
2022/10/13 10:51:31;;;;;;;24.92;9.55;;;14.80;99.90;;;;;;5089871;28;20192;-83
2022/10/13 10:54:37;;;;;;;19.38;7.65;;;14.80;99.90;;;;;;5088841;28;20047;-82
2022/10/13 10:57:14;;;;;;;24.70;8.45;;;14.80;99.90;;;;;;5085890;28;20052;-82
2022/10/13 10:59:52;;;;;;;27.05;8.00;;;14.90;99.90;;;;;;5091158;28;20464;-82
2022/10/13 11:02:40;;;;;;;24.60;8.52;;;14.90;99.90;;;;;;5080343;28;20066;-82
2022/10/13 11:05:06;;;;;;;22.20;7.15;;;14.90;99.90;;;;;;5089661;28;20028;-82
2022/10/13 11:07:32;;;;;;;16.52;7.50;;;14.90;99.90;;;;;;5086442;28;20036;-82
2022/10/13 11:10:16;;;;;;;20.00;6.55;;;14.90;99.90;;;;;;5090675;28;20712;-81
2022/10/13 11:13:05;;;;;;;19.25;6.50;;;15.00;99.90;;;;;;5085577;28;20024;-83
2022/10/13 11:15:40;;;;;;;15.63;6.40;;;15.10;99.90;;;;;;5086977;28;20029;-82
2022/10/13 11:18:44;;;;;;;17.13;7.57;;;15.20;99.90;;;;;;5089480;28;20203;-81
2022/10/13 11:21:09;;;;;;;22.67;7.80;;;15.30;99.90;;;;;;5088332;28;20032;-82
2022/10/13 11:23:43;;;;;;;30.20;9.05;;;15.30;99.90;;;;;;5091557;28;20085;-82
2022/10/13 11:26:30;;;;;;;22.65;7.78;;;15.40;99.90;;;;;;5079328;28;20475;-82
2022/10/13 11:28:57;;;;;;;19.85;7.25;;;15.50;99.90;;;;;;5086299;28;20115;-82
2022/10/13 11:31:26;;;;;;;13.45;6.88;;;15.40;99.90;;;;;;5101072;28;20506;-83
2022/10/13 11:33:57;;;;;;;14.52;8.15;;;15.50;99.90;;;;;;5090018;28;20055;-84
2022/10/13 11:36:41;;;;;;;17.65;7.18;;;15.60;99.90;;;;;;5089529;28;20131;-81
2022/10/13 11:39:26;;;;;;;23.25;7.07;;;15.60;99.90;;;;;;5089981;28;20177;-82
2022/10/13 11:42:18;;;;;;;16.75;8.75;;;15.60;99.90;;;;;;5090394;28;20097;-82
2022/10/13 11:44:54;;;;;;;18.15;8.02;;;15.70;99.90;;;;;;5081444;28;20101;-82
2022/10/13 11:47:41;;;;;;;14.63;6.80;;;15.70;99.90;;;;;;5095917;28;20039;-82
2022/10/13 11:50:26;;;;;;;12.80;6.57;;;15.80;99.90;;;;;;5090453;28;20469;-81
2022/10/13 11:53:16;;;;;;;16.58;7.13;;;15.80;99.90;;;;;;5090442;28;20032;-81
2022/10/13 11:55:50;;;;;;;19.70;7.35;;;15.90;99.90;;;;;;5087599;28;20314;-82
2022/10/13 11:58:16;;;;;;;21.47;7.30;;;16.00;99.90;;;;;;5086305;28;20028;-82
2022/10/13 12:01:00;;;;;;;20.90;8.50;;;16.10;99.90;;;;;;5084640;28;20024;-83
2022/10/13 12:03:39;;;;;;;18.58;6.75;;;16.10;99.90;;;;;;5079236;28;20563;-82
2022/10/13 12:06:19;;;;;;;24.88;7.32;;;16.10;99.90;;;;;;5080596;28;20035;-84
2022/10/13 12:08:48;;;;;;;19.13;7.18;;;16.20;99.90;;;;;;5088204;28;20021;-82
2022/10/13 12:11:43;;;;;;;14.85;5.65;;;16.30;99.90;;;;;;5089999;28;20032;-83
2022/10/13 12:14:37;;;;;;;12.55;5.28;;;16.30;99.90;;;;;;5088101;28;20106;-82
2022/10/13 12:17:02;;;;;;;11.02;4.82;;;16.30;99.90;;;;;;5084180;28;20195;-83
2022/10/13 12:19:34;;;;;;;11.23;4.85;;;16.40;99.90;;;;;;5083028;28;20126;-83
2022/10/13 12:22:01;;;;;;;17.65;4.90;;;16.40;99.90;;;;;;5089694;28;20605;-82
2022/10/13 12:24:32;;;;;;;17.27;4.72;;;16.40;99.90;;;;;;5090765;28;20024;-83
2022/10/13 12:26:58;;;;;;;11.20;5.35;;;16.50;99.90;;;;;;5090069;28;20089;-82
2022/10/13 12:29:28;;;;;;;13.13;4.10;;;16.60;99.90;;;;;;5090684;28;20020;-83
2022/10/13 12:31:57;;;;;;;16.13;4.43;;;16.60;99.90;;;;;;5090034;28;20054;-82
2022/10/13 12:34:35;;;;;;;15.88;5.03;;;16.60;99.90;;;;;;5090710;28;20088;-83
2022/10/13 12:37:04;;;;;;;15.45;4.70;;;16.60;99.90;;;;;;5080381;28;20032;-83
2022/10/13 12:39:35;;;;;;;13.55;4.45;;;16.70;99.90;;;;;;5090373;28;20529;-83
2022/10/13 12:42:02;;;;;;;14.80;4.13;;;16.70;99.90;;;;;;5089771;28;20040;-82
2022/10/13 12:44:33;;;;;;;10.13;4.75;;;16.70;99.90;;;;;;5090752;28;20024;-82
2022/10/13 12:47:02;;;;;;;10.10;4.43;;;16.70;99.90;;;;;;5089915;28;20069;-84
2022/10/13 12:49:35;;;;;;;14.93;4.35;;;16.60;99.90;;;;;;5090294;28;20028;-82
2022/10/13 12:52:13;;;;;;;15.30;5.55;;;16.70;99.90;;;;;;5089699;28;20032;-82
2022/10/13 12:55:00;;;;;;;5.75;3.50;;;16.70;99.90;;;;;;5090396;28;20051;-82
2022/10/13 12:57:36;;;;;;;9.90;4.53;;;16.60;99.90;;;;;;5090401;28;20039;-82
2022/10/13 13:00:18;;;;;;;10.88;4.65;;;16.50;99.90;;;;;;5086925;28;20341;-83
2022/10/13 13:02:53;;;;;;;12.23;4.88;;;16.50;99.90;;;;;;5089720;28;20060;-84
2022/10/13 13:05:38;;;;;;;12.13;4.93;;;16.50;99.90;;;;;;5089620;28;20055;-82
2022/10/13 13:08:21;;;;;;;17.00;4.82;;;16.40;99.90;;;;;;5090316;28;20478;-82